Airport ID:KGOO
Update Time (UTC):26/10/2021 23:30
Wind Speed (Knots):3
Wind Direction (Magnetic):160
Temperature (°C):11
Dew Point (°C):6
Humidity (%):68
Altimeter (inHg):30.23
Density Altitude (Feet):
Visibility:10+
Clouds (Hundreds of feet):OVC034
Present Weather:
METAR:METAR KGOO 262325Z AUTO VRB03KT 10SM OVC036 11/06 A3022 RMK A01

The data displayed is for advisory purposes only and is not to be used for flight planning or operations.